Time;durP1;ratioP1;P1;durP2;ratioP2;P2;SDS_P1;SDS_P2;PMS_P1;PMS_P2;Temp;Humidity;BMP_temperature;BMP_pressure;BME280_temperature;BME280_humidity;BME280_pressure;Samples;Min_cycle;Max_cycle;Signal;HPM_P1;HPM_P2
2022/09/29 00:01:55;;;;;;;16.50;11.48;;;7.40;92.70;;;;;;5074269;28;20032;-37
2022/09/29 00:04:21;;;;;;;16.88;11.02;;;7.40;92.80;;;;;;5074902;28;20032;-37
2022/09/29 00:06:48;;;;;;;18.65;11.82;;;7.50;92.80;;;;;;5056170;28;20032;-37
2022/09/29 00:09:14;;;;;;;16.60;11.90;;;7.40;92.80;;;;;;5056106;28;20029;-38
2022/09/29 00:11:39;;;;;;;17.35;11.57;;;7.40;92.80;;;;;;5073919;28;20090;-38
2022/09/29 00:14:05;;;;;;;18.63;11.27;;;7.30;92.80;;;;;;5074013;28;20020;-38
2022/09/29 00:16:30;;;;;;;20.45;12.55;;;7.30;92.90;;;;;;5073830;28;20468;-38
2022/09/29 00:18:56;;;;;;;20.80;11.82;;;7.30;92.80;;;;;;5074010;28;20074;-38
2022/09/29 00:21:22;;;;;;;21.48;11.85;;;7.30;92.90;;;;;;5073610;28;20024;-38
2022/09/29 00:23:49;;;;;;;17.45;11.75;;;7.40;92.80;;;;;;5073846;28;20032;-38
2022/09/29 00:26:20;;;;;;;21.25;11.40;;;7.30;92.80;;;;;;5073977;28;20029;-38
2022/09/29 00:29:04;;;;;;;17.10;9.82;;;7.30;92.80;;;;;;5073766;28;20029;-38
2022/09/29 00:31:32;;;;;;;17.95;9.93;;;7.10;92.70;;;;;;5073527;28;20049;-39
2022/09/29 00:33:58;;;;;;;14.73;8.90;;;7.00;92.70;;;;;;5073585;28;20017;-39
2022/09/29 00:36:27;;;;;;;13.75;9.27;;;6.90;92.60;;;;;;5073967;28;20035;-38
2022/09/29 00:38:53;;;;;;;12.93;8.68;;;6.90;92.60;;;;;;5073644;28;20460;-38
2022/09/29 00:41:32;;;;;;;13.88;8.73;;;6.80;92.70;;;;;;5073198;28;20023;-38
2022/09/29 00:44:04;;;;;;;12.88;9.90;;;6.80;92.70;;;;;;5073400;28;20028;-40
2022/09/29 00:46:29;;;;;;;17.77;11.60;;;6.80;92.80;;;;;;5073393;28;20054;-39
2022/09/29 00:48:58;;;;;;;16.63;10.77;;;6.80;92.90;;;;;;5073560;28;20028;-39
2022/09/29 00:51:26;;;;;;;18.05;10.77;;;6.90;93.00;;;;;;5073202;28;20028;-38
2022/09/29 00:53:52;;;;;;;17.55;10.48;;;6.90;92.90;;;;;;5073141;28;20017;-38
2022/09/29 00:56:19;;;;;;;15.63;9.95;;;6.80;93.00;;;;;;5073212;28;20028;-38
2022/09/29 00:58:53;;;;;;;14.98;10.77;;;6.90;92.90;;;;;;5072897;28;20021;-37
2022/09/29 01:01:25;;;;;;;16.33;10.32;;;6.90;93.00;;;;;;5073080;28;20112;-37
2022/09/29 01:03:55;;;;;;;16.08;10.25;;;6.90;92.90;;;;;;5073014;28;20028;-39
2022/09/29 01:06:33;;;;;;;15.98;9.27;;;6.80;92.90;;;;;;5054791;28;20067;-38
2022/09/29 01:09:00;;;;;;;17.23;10.63;;;6.80;92.90;;;;;;5072837;28;20032;-42
2022/09/29 01:11:26;;;;;;;16.10;10.02;;;6.80;92.90;;;;;;5072561;28;20081;-38
2022/09/29 01:13:53;;;;;;;15.48;10.20;;;6.80;92.90;;;;;;5072708;28;20028;-38
2022/09/29 01:16:19;;;;;;;15.35;9.95;;;6.80;92.90;;;;;;5072894;28;20017;-39
2022/09/29 01:18:45;;;;;;;14.30;10.20;;;6.80;92.90;;;;;;5072990;28;20376;-39
2022/09/29 01:21:42;;;;;;;17.52;9.60;;;6.80;92.90;;;;;;5072717;28;20032;-38
2022/09/29 01:24:25;;;;;;;15.13;9.55;;;6.80;92.90;;;;;;5073154;28;20033;-38
2022/09/29 01:27:09;;;;;;;14.25;10.15;;;6.70;92.90;;;;;;5072904;28;20024;-38
2022/09/29 01:29:55;;;;;;;12.48;8.77;;;6.80;93.00;;;;;;5072602;28;20028;-38
2022/09/29 01:32:39;;;;;;;18.65;10.75;;;6.80;93.00;;;;;;5071909;28;20072;-38
2022/09/29 01:35:26;;;;;;;12.90;8.82;;;6.70;93.00;;;;;;5073068;28;20051;-39
2022/09/29 01:38:13;;;;;;;15.27;9.95;;;6.70;93.00;;;;;;5073060;28;20036;-38
2022/09/29 01:41:06;;;;;;;17.92;9.77;;;6.70;93.00;;;;;;5072678;28;20025;-40
2022/09/29 01:43:41;;;;;;;16.67;10.40;;;6.60;92.90;;;;;;5072985;28;20029;-39
2022/09/29 01:46:32;;;;;;;13.45;9.60;;;6.60;92.90;;;;;;5072827;28;20021;-43
2022/09/29 01:49:01;;;;;;;16.63;9.57;;;6.50;92.90;;;;;;5054453;28;20430;-40
2022/09/29 01:51:46;;;;;;;16.13;10.15;;;6.40;92.80;;;;;;5055470;28;20025;-40
2022/09/29 01:54:21;;;;;;;13.65;9.25;;;6.40;92.80;;;;;;5076586;28;20109;-38
2022/09/29 01:56:56;;;;;;;16.58;11.00;;;6.30;92.80;;;;;;5076435;28;20028;-38
2022/09/29 01:59:32;;;;;;;15.88;10.23;;;6.30;92.90;;;;;;5076430;28;20024;-38
2022/09/29 02:02:04;;;;;;;14.23;9.00;;;6.30;92.90;;;;;;5076720;28;20047;-37
2022/09/29 02:04:39;;;;;;;15.50;10.18;;;6.30;92.90;;;;;;5076036;28;20047;-37
2022/09/29 02:07:16;;;;;;;15.75;10.05;;;6.30;92.90;;;;;;5076261;28;20525;-40
2022/09/29 02:09:46;;;;;;;15.43;9.80;;;6.30;92.90;;;;;;5076127;28;20029;-40
2022/09/29 02:12:16;;;;;;;13.65;9.40;;;6.30;92.90;;;;;;5075788;28;20028;-37
2022/09/29 02:14:44;;;;;;;;;;;6.20;92.90;;;;;;5076296;28;20051;-37
2022/09/29 02:17:23;;;;;;;15.80;10.02;;;6.30;93.00;;;;;;5057697;28;19943;-38
2022/09/29 02:19:51;;;;;;;15.77;10.98;;;6.30;93.10;;;;;;5076062;28;20368;-38
2022/09/29 02:22:18;;;;;;;17.27;9.85;;;6.20;93.00;;;;;;5076124;28;20021;-38
2022/09/29 02:24:44;;;;;;;13.98;9.70;;;6.20;93.00;;;;;;5076068;28;20021;-40
2022/09/29 02:27:10;;;;;;;20.48;10.98;;;6.20;93.00;;;;;;5075806;28;20432;-38
2022/09/29 02:29:37;;;;;;;15.45;9.80;;;6.20;93.00;;;;;;5075506;28;20017;-38
2022/09/29 02:32:08;;;;;;;17.92;10.52;;;6.20;93.00;;;;;;5076015;28;20028;-39
2022/09/29 02:34:40;;;;;;;19.33;11.20;;;6.30;93.10;;;;;;5075950;28;20035;-39
2022/09/29 02:37:37;;;;;;;14.60;10.02;;;6.20;92.90;;;;;;5075865;28;20493;-39
2022/09/29 02:40:14;;;;;;;16.35;10.02;;;6.20;92.80;;;;;;5075828;28;20029;-39
2022/09/29 02:43:01;;;;;;;15.68;9.30;;;6.10;92.90;;;;;;5075844;28;20029;-39
2022/09/29 02:45:38;;;;;;;17.88;11.10;;;6.20;92.90;;;;;;5075814;28;20533;-39
2022/09/29 02:48:04;;;;;;;15.00;10.80;;;6.10;92.80;;;;;;5075745;28;20107;-39
2022/09/29 02:50:46;;;;;;;15.02;10.10;;;6.10;92.80;;;;;;5075297;28;20108;-39
2022/09/29 02:53:14;;;;;;;16.23;10.23;;;6.10;92.80;;;;;;5075704;28;20099;-39
2022/09/29 02:55:45;;;;;;;15.27;10.07;;;6.10;92.90;;;;;;5075774;28;20465;-39
2022/09/29 02:58:10;;;;;;;17.52;10.55;;;6.00;92.80;;;;;;5075566;28;20025;-39
2022/09/29 03:00:37;;;;;;;14.43;10.23;;;5.90;92.80;;;;;;5057131;28;20032;-39
2022/09/29 03:03:02;;;;;;;17.65;10.20;;;5.90;92.80;;;;;;5074673;28;20457;-39
2022/09/29 03:05:28;;;;;;;14.68;9.27;;;5.90;92.90;;;;;;5075142;28;20032;-39
2022/09/29 03:07:54;;;;;;;19.35;10.23;;;5.90;92.90;;;;;;5075420;28;20032;-39
2022/09/29 03:10:19;;;;;;;23.02;12.65;;;5.90;92.90;;;;;;5074954;28;20076;-39
2022/09/29 03:12:46;;;;;;;18.90;9.80;;;5.90;92.90;;;;;;5074972;28;20065;-39
2022/09/29 03:15:12;;;;;;;17.60;10.77;;;5.90;92.90;;;;;;5075259;28;20532;-39
2022/09/29 03:17:38;;;;;;;17.15;10.18;;;5.90;92.90;;;;;;5075052;28;20086;-39
2022/09/29 03:20:04;;;;;;;15.82;10.02;;;5.90;92.90;;;;;;5056928;28;20115;-39
2022/09/29 03:22:30;;;;;;;15.23;9.55;;;5.90;92.90;;;;;;5075377;28;20074;-39
2022/09/29 03:24:56;;;;;;;16.73;10.20;;;5.90;92.90;;;;;;5075166;28;20028;-39
2022/09/29 03:27:22;;;;;;;14.68;9.77;;;5.90;92.90;;;;;;5075022;28;20036;-38
2022/09/29 03:29:49;;;;;;;16.95;11.35;;;5.90;92.80;;;;;;5053404;28;20052;-39
2022/09/29 03:32:15;;;;;;;19.75;11.07;;;5.80;92.80;;;;;;5055336;28;20067;-39
2022/09/29 03:34:40;;;;;;;13.63;9.45;;;5.80;92.80;;;;;;5054752;28;20037;-39
2022/09/29 03:37:06;;;;;;;20.23;10.75;;;5.80;92.80;;;;;;5054717;28;20532;-39
2022/09/29 03:39:32;;;;;;;18.63;11.10;;;5.80;92.90;;;;;;5054967;28;20036;-39
2022/09/29 03:41:57;;;;;;;14.75;9.10;;;5.80;92.90;;;;;;5053385;28;20112;-38
2022/09/29 03:44:23;;;;;;;19.08;11.63;;;5.80;92.80;;;;;;5054839;28;20028;-38
2022/09/29 03:46:49;;;;;;;17.13;11.38;;;5.80;92.80;;;;;;5054576;28;20044;-38
2022/09/29 03:49:15;;;;;;;16.02;10.98;;;5.80;92.80;;;;;;5054514;28;20051;-39
2022/09/29 03:51:41;;;;;;;24.05;11.05;;;5.80;92.90;;;;;;5054690;28;20059;-38
2022/09/29 03:54:08;;;;;;;19.15;10.68;;;5.80;92.90;;;;;;5054764;28;20025;-38
2022/09/29 03:56:34;;;;;;;17.52;10.82;;;5.80;92.90;;;;;;5054426;28;20028;-39
2022/09/29 03:59:00;;;;;;;18.35;10.75;;;5.80;92.90;;;;;;5052945;28;20481;-39
2022/09/29 04:01:26;;;;;;;18.58;11.38;;;5.90;92.90;;;;;;5054271;28;20035;-39
2022/09/29 04:03:51;;;;;;;18.10;10.25;;;5.80;92.90;;;;;;5054196;28;20029;-38
2022/09/29 04:06:17;;;;;;;20.48;11.82;;;5.80;92.90;;;;;;5054153;28;20484;-38
2022/09/29 04:08:42;;;;;;;16.58;10.15;;;5.80;92.80;;;;;;5054141;28;20083;-39
2022/09/29 04:11:08;;;;;;;17.05;10.43;;;5.80;92.90;;;;;;5054045;28;20025;-39
2022/09/29 04:13:34;;;;;;;17.35;9.77;;;5.80;92.90;;;;;;5053993;28;20477;-39
2022/09/29 04:16:01;;;;;;;17.63;10.57;;;5.80;92.90;;;;;;5053520;28;20465;-38
2022/09/29 04:18:27;;;;;;;16.58;10.30;;;5.80;92.90;;;;;;5052710;28;20025;-39
2022/09/29 04:20:53;;;;;;;17.15;10.93;;;5.80;92.90;;;;;;5053839;28;20039;-39
2022/09/29 04:23:19;;;;;;;15.40;10.55;;;5.80;92.90;;;;;;5054206;28;20037;-40
2022/09/29 04:25:45;;;;;;;28.95;11.73;;;5.80;92.90;;;;;;5053161;28;20044;-39
2022/09/29 04:28:11;;;;;;;18.42;11.35;;;5.80;92.80;;;;;;5053810;28;20473;-39
2022/09/29 04:30:37;;;;;;;19.67;10.85;;;5.70;92.80;;;;;;5064294;28;20070;-39
2022/09/29 04:33:03;;;;;;;17.17;11.65;;;5.70;92.80;;;;;;5073648;28;20099;-39
2022/09/29 04:35:29;;;;;;;18.63;11.82;;;5.70;92.80;;;;;;5073597;28;20025;-39
2022/09/29 04:37:56;;;;;;;15.70;10.35;;;5.60;92.80;;;;;;5073752;28;20028;-39
2022/09/29 04:40:22;;;;;;;16.17;10.30;;;5.70;92.80;;;;;;5073293;28;20043;-39
2022/09/29 04:42:48;;;;;;;19.10;11.75;;;5.70;92.80;;;;;;5073448;28;20046;-39
2022/09/29 04:45:14;;;;;;;16.05;10.20;;;5.60;92.90;;;;;;5055427;28;20028;-39
2022/09/29 04:47:39;;;;;;;23.52;12.48;;;5.60;92.90;;;;;;5073286;28;20107;-39
2022/09/29 04:50:06;;;;;;;18.55;11.27;;;5.60;92.90;;;;;;5073329;28;20496;-39
2022/09/29 04:52:32;;;;;;;18.08;12.02;;;5.70;92.90;;;;;;5073192;28;20035;-39
2022/09/29 04:54:57;;;;;;;19.80;11.55;;;5.70;92.90;;;;;;5055288;28;20071;-42
2022/09/29 04:57:23;;;;;;;18.30;12.05;;;5.70;92.70;;;;;;5073088;28;20025;-40
2022/09/29 04:59:50;;;;;;;19.52;11.48;;;5.60;92.60;;;;;;5073153;28;20353;-38
2022/09/29 05:02:18;;;;;;;21.05;13.38;;;5.60;92.60;;;;;;5073264;28;20075;-38
2022/09/29 05:04:44;;;;;;;18.90;11.40;;;5.60;92.60;;;;;;5072814;28;20017;-38
2022/09/29 05:07:10;;;;;;;19.98;11.80;;;5.50;92.60;;;;;;5072907;28;20111;-38
2022/09/29 05:09:35;;;;;;;21.70;11.60;;;5.50;92.60;;;;;;5072890;28;20366;-38
2022/09/29 05:12:01;;;;;;;22.27;12.63;;;5.50;92.60;;;;;;5072991;28;20458;-38
2022/09/29 17:33:08;;;;;;;10.85;4.88;;;11.40;75.10;;;;;;5111161;27;20168;-40
2022/09/29 17:35:36;;;;;;;11.60;5.47;;;11.30;75.60;;;;;;5111155;28;20087;-38
2022/09/29 17:38:06;;;;;;;8.75;5.07;;;11.30;76.00;;;;;;5109181;28;20439;-39
2022/09/29 17:40:53;;;;;;;7.57;4.43;;;11.30;76.20;;;;;;5110630;28;20456;-40
2022/09/29 17:43:19;;;;;;;8.90;4.40;;;11.30;76.50;;;;;;5110512;28;20020;-40
2022/09/29 17:45:45;;;;;;;8.35;4.70;;;11.30;76.70;;;;;;5110283;28;20023;-39
2022/09/29 17:48:11;;;;;;;8.63;5.35;;;11.30;76.70;;;;;;5110265;28;20023;-39
2022/09/29 17:50:42;;;;;;;8.73;4.80;;;11.30;77.00;;;;;;5109143;28;20460;-38
2022/09/29 17:53:10;;;;;;;9.68;4.55;;;11.30;77.20;;;;;;5111131;28;20521;-39
2022/09/29 17:55:36;;;;;;;9.25;5.93;;;11.20;77.30;;;;;;5110343;28;20027;-39
2022/09/29 17:58:03;;;;;;;14.18;5.43;;;11.10;77.80;;;;;;5110221;28;20028;-38
2022/09/29 18:00:36;;;;;;;11.80;6.18;;;11.10;78.30;;;;;;5110797;28;20345;-40
2022/09/29 18:03:02;;;;;;;11.07;5.45;;;11.00;78.60;;;;;;5109900;28;20076;-40
2022/09/29 18:05:29;;;;;;;10.52;5.05;;;10.90;79.10;;;;;;5109830;28;20028;-38
2022/09/29 18:07:56;;;;;;;10.40;7.05;;;10.80;79.60;;;;;;5109910;28;20463;-40
2022/09/29 18:10:39;;;;;;;11.20;6.40;;;10.80;79.90;;;;;;5109728;28;20016;-39
2022/09/29 18:13:06;;;;;;;8.68;5.65;;;10.70;80.40;;;;;;5108674;28;20085;-44
2022/09/29 18:15:32;;;;;;;12.55;6.47;;;10.70;80.80;;;;;;5108290;28;20076;-38
2022/09/29 18:18:00;;;;;;;8.32;5.78;;;10.50;80.80;;;;;;5109942;28;20187;-40
2022/09/29 18:20:28;;;;;;;8.35;5.22;;;10.40;81.10;;;;;;5109797;28;20486;-40
2022/09/29 18:22:55;;;;;;;9.90;6.07;;;10.40;81.50;;;;;;5109772;28;20035;-38
2022/09/29 18:25:21;;;;;;;10.60;6.68;;;10.30;81.80;;;;;;5108201;28;20547;-38
2022/09/29 18:27:48;;;;;;;18.58;6.78;;;10.20;82.30;;;;;;5109520;28;20147;-39
2022/09/29 18:30:35;;;;;;;12.93;5.60;;;10.20;82.50;;;;;;5109814;28;20028;-39
2022/09/29 18:33:01;;;;;;;9.38;5.85;;;10.10;82.70;;;;;;5109328;28;20074;-39
2022/09/29 18:35:28;;;;;;;7.80;6.45;;;10.10;83.10;;;;;;5109306;28;20031;-38
2022/09/29 18:37:54;;;;;;;9.85;5.50;;;10.10;83.30;;;;;;5109718;28;20027;-38
2022/09/29 18:40:20;;;;;;;11.57;5.85;;;10.10;83.50;;;;;;5109361;28;20019;-41
2022/09/29 18:42:50;;;;;;;11.45;5.72;;;10.00;83.80;;;;;;5103771;28;20100;-40
2022/09/29 18:45:21;;;;;;;8.85;6.38;;;10.00;84.10;;;;;;5095410;28;20040;-38
2022/09/29 18:47:52;;;;;;;8.85;6.57;;;9.90;84.50;;;;;;5096174;28;20047;-40
2022/09/29 18:50:24;;;;;;;8.63;4.53;;;9.90;84.80;;;;;;5095897;28;20047;-38
2022/09/29 18:52:51;;;;;;;8.35;4.43;;;10.00;85.00;;;;;;5094120;28;20044;-39
2022/09/29 18:55:25;;;;;;;10.75;4.78;;;9.80;85.00;;;;;;5095131;28;20063;-38
2022/09/29 18:57:52;;;;;;;9.35;4.45;;;9.80;85.20;;;;;;5095723;28;20084;-39
2022/09/29 19:00:20;;;;;;;8.73;4.63;;;9.80;85.30;;;;;;5095410;28;20034;-38
2022/09/29 19:02:46;;;;;;;12.18;5.55;;;9.70;85.40;;;;;;5095143;28;20089;-38
2022/09/29 19:05:19;;;;;;;9.00;5.88;;;9.70;85.60;;;;;;5094937;28;20047;-39
2022/09/29 19:07:47;;;;;;;9.63;4.82;;;9.70;85.80;;;;;;5095117;28;20050;-39
2022/09/29 19:10:14;;;;;;;8.50;6.07;;;9.70;85.90;;;;;;5095011;28;20443;-38
2022/09/29 19:12:44;;;;;;;12.88;6.95;;;9.60;85.90;;;;;;5094668;28;20089;-39
2022/09/29 19:15:14;;;;;;;10.93;5.83;;;9.50;85.90;;;;;;5094746;28;20020;-39
2022/09/29 19:17:40;;;;;;;17.98;6.60;;;9.50;86.10;;;;;;5095006;28;20619;-39
2022/09/29 19:20:06;;;;;;;18.13;8.60;;;9.40;86.30;;;;;;5094760;28;20075;-38
2022/09/29 19:22:34;;;;;;;14.18;7.53;;;9.40;86.40;;;;;;5093110;28;20503;-39
2022/09/29 19:25:04;;;;;;;15.23;8.95;;;9.40;86.60;;;;;;5094618;28;20533;-39
2022/09/29 19:27:30;;;;;;;14.68;8.73;;;9.30;86.90;;;;;;5094417;28;20024;-38
2022/09/29 19:29:55;;;;;;;19.42;9.02;;;9.30;87.00;;;;;;5094714;28;20103;-38
2022/09/29 19:32:22;;;;;;;18.30;10.52;;;9.30;87.10;;;;;;5094454;28;20456;-39
2022/09/29 19:34:49;;;;;;;16.98;10.52;;;9.30;87.20;;;;;;5094827;28;20050;-38
2022/09/29 19:37:15;;;;;;;24.45;12.20;;;9.30;87.30;;;;;;5094882;28;20016;-39
2022/09/29 19:39:41;;;;;;;26.35;12.88;;;9.20;87.40;;;;;;5094729;28;20028;-39
2022/09/29 19:42:06;;;;;;;20.50;12.63;;;9.20;87.50;;;;;;5094402;28;20476;-40
2022/09/29 19:44:36;;;;;;;21.67;11.85;;;9.20;87.50;;;;;;5094756;28;20127;-40
2022/09/29 19:47:02;;;;;;;21.50;12.52;;;9.10;87.60;;;;;;5094296;28;20054;-39
2022/09/29 19:49:30;;;;;;;22.33;11.57;;;9.00;87.60;;;;;;5094536;28;20028;-39
2022/09/29 19:51:58;;;;;;;23.50;13.20;;;9.00;87.70;;;;;;5094286;28;20135;-39
2022/09/29 19:54:30;;;;;;;20.83;12.55;;;8.90;87.70;;;;;;5093512;28;20035;-39
2022/09/29 19:57:01;;;;;;;21.25;11.25;;;8.90;87.90;;;;;;5094271;28;20413;-39
2022/09/29 19:59:30;;;;;;;24.85;12.60;;;8.90;88.00;;;;;;5094187;28;20107;-39
2022/09/29 20:01:57;;;;;;;22.48;12.43;;;8.90;88.10;;;;;;5094104;28;20036;-40
2022/09/29 20:04:26;;;;;;;22.95;12.60;;;8.90;88.20;;;;;;5094240;28;20020;-38
2022/09/29 20:06:52;;;;;;;22.92;13.77;;;8.90;88.20;;;;;;5094480;28;20046;-39
2022/09/29 20:09:18;;;;;;;22.10;12.00;;;9.00;88.20;;;;;;5094066;28;20024;-39
2022/09/29 20:11:48;;;;;;;19.80;11.20;;;8.90;88.20;;;;;;5093938;28;20028;-39
2022/09/29 20:14:15;;;;;;;14.67;8.90;;;9.00;88.20;;;;;;5094034;28;20113;-39
2022/09/29 20:16:44;;;;;;;15.82;8.45;;;8.80;88.00;;;;;;5092951;28;20381;-39
2022/09/29 20:19:15;;;;;;;14.70;7.72;;;8.80;88.00;;;;;;5093919;28;20058;-39
2022/09/29 20:21:42;;;;;;;16.77;9.30;;;8.80;88.10;;;;;;5094181;28;20027;-40
2022/09/29 20:24:11;;;;;;;16.52;8.85;;;8.80;88.30;;;;;;5094133;28;20024;-40
2022/09/29 20:26:38;;;;;;;21.40;8.63;;;8.80;88.40;;;;;;5093612;28;20060;-38
2022/09/29 20:29:04;;;;;;;13.27;7.15;;;8.80;88.50;;;;;;5094159;28;20056;-38
2022/09/29 20:31:30;;;;;;;15.48;7.85;;;8.70;88.50;;;;;;5093565;28;20051;-40
2022/09/29 20:33:56;;;;;;;11.25;7.05;;;8.70;88.60;;;;;;5093189;28;20125;-39
2022/09/29 20:36:22;;;;;;;16.13;10.10;;;8.70;88.60;;;;;;5094752;28;20375;-40
2022/09/29 20:38:49;;;;;;;21.70;12.38;;;8.70;88.70;;;;;;5094682;28;20020;-38
2022/09/29 20:41:15;;;;;;;20.77;11.77;;;8.70;88.70;;;;;;5093039;28;20028;-39
2022/09/29 20:43:43;;;;;;;21.55;11.30;;;8.60;88.80;;;;;;5094563;28;20054;-39
2022/09/29 20:46:12;;;;;;;28.95;13.13;;;8.70;89.00;;;;;;5092806;28;20066;-40
2022/09/29 20:48:39;;;;;;;23.95;13.25;;;8.70;89.00;;;;;;5094303;28;20046;-40
2022/09/29 20:51:07;;;;;;;20.10;12.38;;;8.70;89.00;;;;;;5094114;28;20410;-39
2022/09/29 20:53:39;;;;;;;25.83;12.85;;;8.60;89.00;;;;;;5092880;28;20084;-41
2022/09/29 20:56:07;;;;;;;15.75;10.40;;;8.60;89.10;;;;;;5094117;28;20031;-40
2022/09/29 20:58:33;;;;;;;16.10;9.48;;;8.50;89.00;;;;;;5093659;28;20027;-39
2022/09/29 21:01:22;;;;;;;16.20;8.88;;;8.50;89.10;;;;;;5093435;28;20028;-39
2022/09/29 21:03:59;;;;;;;19.10;8.32;;;8.40;89.20;;;;;;5093255;28;20035;-40
2022/09/29 21:06:27;;;;;;;14.02;8.35;;;8.40;89.20;;;;;;5093064;28;20024;-39
2022/09/29 21:08:54;;;;;;;14.07;8.35;;;8.40;89.20;;;;;;5093271;28;20032;-39
2022/09/29 21:11:21;;;;;;;16.25;8.02;;;8.30;89.20;;;;;;5093409;28;20489;-39
2022/09/29 21:13:49;;;;;;;17.25;7.45;;;8.30;89.20;;;;;;5093334;28;20098;-38
2022/09/29 21:16:16;;;;;;;14.00;7.78;;;8.30;89.20;;;;;;5093319;28;20020;-38
2022/09/29 21:18:42;;;;;;;18.73;10.32;;;8.20;89.30;;;;;;5091619;28;20031;-38
2022/09/29 21:21:08;;;;;;;15.90;8.90;;;8.30;89.40;;;;;;5092999;28;20028;-38
2022/09/29 21:23:39;;;;;;;17.15;8.80;;;8.30;89.50;;;;;;5093217;28;20479;-39
2022/09/29 21:26:06;;;;;;;;;;;8.20;89.50;;;;;;5093429;28;20396;-38
2022/09/29 21:28:36;;;;;;;13.43;9.10;;;8.20;89.50;;;;;;5092950;28;19955;-39
2022/09/29 21:31:09;;;;;;;14.85;8.10;;;8.30;89.50;;;;;;5092893;28;20555;-37
2022/09/29 21:33:36;;;;;;;17.15;9.98;;;8.20;89.40;;;;;;5092868;28;20039;-38
2022/09/29 21:36:05;;;;;;;19.95;8.77;;;8.10;89.30;;;;;;5092950;28;20157;-37
2022/09/29 21:38:33;;;;;;;14.20;8.15;;;8.10;89.40;;;;;;5093588;28;20051;-39
2022/09/29 21:41:08;;;;;;;14.82;8.45;;;8.00;89.40;;;;;;5092805;28;20028;-38
2022/09/29 21:43:35;;;;;;;16.42;8.60;;;7.90;89.40;;;;;;5092722;28;20024;-39
2022/09/29 21:46:03;;;;;;;16.25;9.20;;;7.90;89.40;;;;;;5093005;28;20020;-38
2022/09/29 21:48:30;;;;;;;15.63;9.50;;;7.80;89.50;;;;;;5092834;28;20020;-40
2022/09/29 21:51:06;;;;;;;14.32;8.82;;;7.80;89.50;;;;;;5092825;28;20074;-38
2022/09/29 21:53:34;;;;;;;16.00;9.18;;;7.70;89.60;;;;;;5092939;28;20020;-38
2022/09/29 21:56:06;;;;;;;24.27;11.18;;;7.70;89.70;;;;;;5092695;28;20054;-40
2022/09/29 21:58:32;;;;;;;18.23;9.98;;;7.70;89.80;;;;;;5092670;28;20028;-40
2022/09/29 22:00:58;;;;;;;12.70;9.63;;;7.70;90.00;;;;;;5092715;28;20054;-39
2022/09/29 22:03:28;;;;;;;19.85;11.15;;;7.70;90.00;;;;;;5092636;28;20436;-39
2022/09/29 22:05:54;;;;;;;17.20;11.40;;;7.70;90.10;;;;;;5093092;28;20016;-39
2022/09/29 22:08:22;;;;;;;21.17;11.95;;;7.70;90.00;;;;;;5092650;28;20034;-38
2022/09/29 22:10:49;;;;;;;24.05;12.68;;;7.70;90.00;;;;;;5092151;28;20024;-39
2022/09/29 22:13:16;;;;;;;17.77;10.18;;;7.60;90.00;;;;;;5092367;28;20013;-39
2022/09/29 22:15:41;;;;;;;26.20;12.68;;;7.60;90.10;;;;;;5092609;28;20476;-39
2022/09/29 22:18:07;;;;;;;20.10;12.20;;;7.60;90.20;;;;;;5093123;28;20020;-39
2022/09/29 22:20:35;;;;;;;23.42;13.52;;;7.60;90.20;;;;;;5096119;28;20021;-39
2022/09/29 22:23:01;;;;;;;24.88;14.30;;;7.60;90.30;;;;;;5096341;28;20044;-39
2022/09/29 22:25:27;;;;;;;20.50;12.88;;;7.50;90.30;;;;;;5096062;28;20406;-39
2022/09/29 22:27:52;;;;;;;27.75;14.52;;;7.50;90.30;;;;;;5094848;28;20073;-39
2022/09/29 22:30:18;;;;;;;22.40;14.50;;;7.50;90.20;;;;;;5095900;28;20425;-39
2022/09/29 22:32:44;;;;;;;23.45;13.63;;;7.50;90.20;;;;;;5094430;28;20079;-39
2022/09/29 22:35:09;;;;;;;24.83;15.27;;;7.50;90.10;;;;;;5095805;28;20048;-39
2022/09/29 22:37:35;;;;;;;26.80;16.33;;;7.40;89.90;;;;;;5096066;28;20347;-39
2022/09/29 22:40:02;;;;;;;23.08;15.15;;;7.30;90.00;;;;;;5096593;28;20016;-40
2022/09/29 22:42:28;;;;;;;21.58;12.05;;;7.40;90.10;;;;;;5096229;28;20035;-39
2022/09/29 22:44:54;;;;;;;21.55;12.07;;;7.40;90.00;;;;;;5095860;28;20028;-40
2022/09/29 22:47:19;;;;;;;23.08;12.20;;;7.30;89.90;;;;;;5096069;28;20024;-37
2022/09/29 22:49:45;;;;;;;21.05;13.40;;;7.30;89.90;;;;;;5095871;28;20028;-38
2022/09/29 22:52:10;;;;;;;23.70;12.73;;;7.30;89.90;;;;;;5096134;28;20024;-38
2022/09/29 22:54:36;;;;;;;22.50;14.30;;;7.30;90.00;;;;;;5096072;28;20069;-38
2022/09/29 22:57:02;;;;;;;21.50;14.20;;;7.20;90.10;;;;;;5095911;28;20048;-39
2022/09/29 22:59:27;;;;;;;17.60;11.45;;;7.30;90.10;;;;;;5095911;28;20028;-40
2022/09/29 23:01:53;;;;;;;22.10;12.15;;;7.20;90.10;;;;;;5095773;28;20398;-38
2022/09/29 23:04:19;;;;;;;20.15;12.02;;;7.30;90.10;;;;;;5095677;28;20099;-39
2022/09/29 23:06:44;;;;;;;22.58;14.32;;;7.30;90.20;;;;;;5096042;28;20539;-39
2022/09/29 23:09:10;;;;;;;18.92;12.95;;;7.20;90.10;;;;;;5095659;28;20028;-40
2022/09/29 23:11:36;;;;;;;16.95;11.93;;;7.20;90.10;;;;;;5095799;28;20032;-40
2022/09/29 23:14:02;;;;;;;18.73;11.77;;;7.30;90.10;;;;;;5096034;28;20039;-39
2022/09/29 23:16:28;;;;;;;21.23;14.48;;;7.20;90.10;;;;;;5095698;28;20504;-39
2022/09/29 23:18:55;;;;;;;24.02;14.48;;;7.20;90.10;;;;;;5095807;28;20024;-39
2022/09/29 23:21:22;;;;;;;18.15;10.82;;;7.10;90.10;;;;;;5096015;28;20337;-39
2022/09/29 23:23:53;;;;;;;21.75;13.60;;;7.10;90.20;;;;;;5095652;28;20046;-39
2022/09/29 23:26:19;;;;;;;23.35;13.88;;;7.10;90.20;;;;;;5095927;28;20029;-40
2022/09/29 23:28:45;;;;;;;22.77;14.23;;;7.00;90.20;;;;;;5096048;28;20020;-39
2022/09/29 23:31:11;;;;;;;24.98;13.82;;;7.10;90.30;;;;;;5095762;28;20090;-39
2022/09/29 23:33:36;;;;;;;21.92;13.90;;;7.00;90.20;;;;;;5094786;28;20028;-39
2022/09/29 23:36:07;;;;;;;25.48;15.02;;;6.90;90.20;;;;;;5095943;28;20020;-39
2022/09/29 23:41:18;;;;;;;32.10;15.38;;;6.90;90.30;;;;;;5095941;28;20046;-39
2022/09/29 23:43:44;;;;;;;27.80;16.17;;;6.80;90.20;;;;;;5094122;28;20024;-39
2022/09/29 23:46:10;;;;;;;22.67;14.77;;;6.80;90.20;;;;;;5094081;28;20030;-39
2022/09/29 23:48:36;;;;;;;32.10;15.77;;;6.80;90.20;;;;;;5094171;28;20024;-39
2022/09/29 23:51:02;;;;;;;20.95;13.70;;;6.80;90.20;;;;;;5094949;28;20039;-39
2022/09/29 23:53:27;;;;;;;23.58;12.10;;;6.80;90.20;;;;;;5094996;28;20038;-38
2022/09/29 23:55:53;;;;;;;15.30;9.15;;;6.80;90.10;;;;;;5094852;28;20430;-38
2022/09/29 23:58:18;;;;;;;12.82;8.82;;;6.80;90.20;;;;;;5094590;28;20524;-39
